sensor_id;sensor_type;location;lat;lon;timestamp;P1;durP1;ratioP1;P2;durP2;ratioP2
59786;SDS011;45672;51.612;5.536;2023-05-14T00:00:32;13.00;;;8.20;;
59786;SDS011;45672;51.612;5.536;2023-05-14T00:02:59;14.13;;;8.60;;
59786;SDS011;45672;51.612;5.536;2023-05-14T00:05:24;13.80;;;7.72;;
59786;SDS011;45672;51.612;5.536;2023-05-14T00:07:49;11.70;;;8.23;;
59786;SDS011;45672;51.612;5.536;2023-05-14T00:10:15;8.60;;;7.78;;
59786;SDS011;45672;51.612;5.536;2023-05-14T00:12:41;11.93;;;8.07;;
59786;SDS011;45672;51.612;5.536;2023-05-14T00:15:07;10.32;;;7.75;;
59786;SDS011;45672;51.612;5.536;2023-05-14T00:17:32;12.57;;;8.27;;
59786;SDS011;45672;51.612;5.536;2023-05-14T00:19:58;9.20;;;7.60;;
59786;SDS011;45672;51.612;5.536;2023-05-14T00:22:23;11.52;;;8.20;;
59786;SDS011;45672;51.612;5.536;2023-05-14T00:24:48;9.32;;;8.40;;
59786;SDS011;45672;51.612;5.536;2023-05-14T00:27:14;10.82;;;8.60;;
59786;SDS011;45672;51.612;5.536;2023-05-14T00:29:39;9.95;;;8.95;;
59786;SDS011;45672;51.612;5.536;2023-05-14T00:32:04;10.35;;;8.65;;
59786;SDS011;45672;51.612;5.536;2023-05-14T00:34:30;10.55;;;9.52;;
59786;SDS011;45672;51.612;5.536;2023-05-14T00:36:55;11.43;;;9.60;;
59786;SDS011;45672;51.612;5.536;2023-05-14T00:39:20;11.02;;;9.85;;
59786;SDS011;45672;51.612;5.536;2023-05-14T00:41:46;10.85;;;9.75;;
59786;SDS011;45672;51.612;5.536;2023-05-14T00:44:11;11.90;;;9.60;;
59786;SDS011;45672;51.612;5.536;2023-05-14T00:46:36;10.38;;;9.27;;
59786;SDS011;45672;51.612;5.536;2023-05-14T00:49:02;11.05;;;9.85;;
59786;SDS011;45672;51.612;5.536;2023-05-14T00:51:27;12.57;;;9.98;;
59786;SDS011;45672;51.612;5.536;2023-05-14T00:53:53;13.85;;;10.13;;
59786;SDS011;45672;51.612;5.536;2023-05-14T00:56:19;16.30;;;10.00;;
59786;SDS011;45672;51.612;5.536;2023-05-14T00:58:45;18.30;;;11.00;;
59786;SDS011;45672;51.612;5.536;2023-05-14T01:01:10;16.13;;;10.80;;
59786;SDS011;45672;51.612;5.536;2023-05-14T01:03:39;15.60;;;10.10;;
59786;SDS011;45672;51.612;5.536;2023-05-14T01:11:35;13.52;;;11.38;;
59786;SDS011;45672;51.612;5.536;2023-05-14T01:14:19;18.75;;;11.00;;
59786;SDS011;45672;51.612;5.536;2023-05-14T01:16:49;15.93;;;11.60;;
59786;SDS011;45672;51.612;5.536;2023-05-14T01:19:28;14.85;;;11.38;;
59786;SDS011;45672;51.612;5.536;2023-05-14T01:22:01;16.08;;;11.50;;
59786;SDS011;45672;51.612;5.536;2023-05-14T01:24:26;13.35;;;11.38;;
59786;SDS011;45672;51.612;5.536;2023-05-14T01:26:52;18.17;;;12.43;;
59786;SDS011;45672;51.612;5.536;2023-05-14T01:29:23;14.73;;;11.80;;
59786;SDS011;45672;51.612;5.536;2023-05-14T01:31:52;17.75;;;12.00;;
59786;SDS011;45672;51.612;5.536;2023-05-14T01:34:20;18.27;;;12.38;;
59786;SDS011;45672;51.612;5.536;2023-05-14T01:36:48;18.60;;;12.38;;
59786;SDS011;45672;51.612;5.536;2023-05-14T01:39:15;17.85;;;12.32;;
59786;SDS011;45672;51.612;5.536;2023-05-14T01:41:41;16.25;;;12.68;;
59786;SDS011;45672;51.612;5.536;2023-05-14T01:44:08;16.42;;;12.55;;
59786;SDS011;45672;51.612;5.536;2023-05-14T01:46:34;15.13;;;12.68;;
59786;SDS011;45672;51.612;5.536;2023-05-14T01:48:59;15.82;;;12.32;;
59786;SDS011;45672;51.612;5.536;2023-05-14T01:51:25;14.63;;;12.30;;
59786;SDS011;45672;51.612;5.536;2023-05-14T01:53:51;13.57;;;12.18;;
59786;SDS011;45672;51.612;5.536;2023-05-14T01:56:16;15.07;;;12.48;;
59786;SDS011;45672;51.612;5.536;2023-05-14T01:58:43;19.08;;;13.38;;
59786;SDS011;45672;51.612;5.536;2023-05-14T02:01:08;17.38;;;13.15;;
59786;SDS011;45672;51.612;5.536;2023-05-14T02:03:34;14.70;;;13.30;;
59786;SDS011;45672;51.612;5.536;2023-05-14T02:05:59;18.65;;;13.32;;
59786;SDS011;45672;51.612;5.536;2023-05-14T02:08:24;16.00;;;13.27;;
59786;SDS011;45672;51.612;5.536;2023-05-14T02:10:50;14.75;;;13.20;;
59786;SDS011;45672;51.612;5.536;2023-05-14T02:13:15;15.90;;;13.32;;
59786;SDS011;45672;51.612;5.536;2023-05-14T02:15:40;17.38;;;13.45;;
59786;SDS011;45672;51.612;5.536;2023-05-14T02:18:06;15.95;;;13.90;;
59786;SDS011;45672;51.612;5.536;2023-05-14T02:20:31;18.80;;;14.55;;
59786;SDS011;45672;51.612;5.536;2023-05-14T02:22:56;15.55;;;13.57;;
59786;SDS011;45672;51.612;5.536;2023-05-14T02:25:22;16.27;;;14.35;;
59786;SDS011;45672;51.612;5.536;2023-05-14T02:27:47;17.02;;;14.10;;
59786;SDS011;45672;51.612;5.536;2023-05-14T02:30:13;19.00;;;13.57;;
59786;SDS011;45672;51.612;5.536;2023-05-14T02:32:38;15.95;;;14.13;;
59786;SDS011;45672;51.612;5.536;2023-05-14T02:35:04;21.40;;;14.93;;
59786;SDS011;45672;51.612;5.536;2023-05-14T02:37:29;17.27;;;14.38;;
59786;SDS011;45672;51.612;5.536;2023-05-14T02:39:55;16.88;;;14.07;;
59786;SDS011;45672;51.612;5.536;2023-05-14T02:42:21;20.00;;;14.77;;
59786;SDS011;45672;51.612;5.536;2023-05-14T02:44:46;20.02;;;14.63;;
59786;SDS011;45672;51.612;5.536;2023-05-14T02:47:11;18.58;;;15.15;;
59786;SDS011;45672;51.612;5.536;2023-05-14T02:49:37;18.95;;;14.95;;
59786;SDS011;45672;51.612;5.536;2023-05-14T02:52:02;18.80;;;15.75;;
59786;SDS011;45672;51.612;5.536;2023-05-14T02:54:27;19.38;;;15.32;;
59786;SDS011;45672;51.612;5.536;2023-05-14T02:56:53;18.88;;;14.73;;
59786;SDS011;45672;51.612;5.536;2023-05-14T02:59:18;18.83;;;15.23;;
59786;SDS011;45672;51.612;5.536;2023-05-14T03:01:43;17.10;;;15.30;;
59786;SDS011;45672;51.612;5.536;2023-05-14T03:04:09;21.67;;;15.85;;
59786;SDS011;45672;51.612;5.536;2023-05-14T03:06:34;21.15;;;16.13;;
59786;SDS011;45672;51.612;5.536;2023-05-14T03:08:59;18.95;;;15.73;;
59786;SDS011;45672;51.612;5.536;2023-05-14T03:11:24;18.08;;;16.15;;
59786;SDS011;45672;51.612;5.536;2023-05-14T03:13:50;25.17;;;16.15;;
59786;SDS011;45672;51.612;5.536;2023-05-14T03:16:15;23.48;;;16.42;;
59786;SDS011;45672;51.612;5.536;2023-05-14T03:18:40;20.50;;;16.15;;
59786;SDS011;45672;51.612;5.536;2023-05-14T03:21:06;20.02;;;16.70;;
59786;SDS011;45672;51.612;5.536;2023-05-14T03:23:32;24.33;;;17.65;;
59786;SDS011;45672;51.612;5.536;2023-05-14T03:25:59;25.35;;;16.63;;
59786;SDS011;45672;51.612;5.536;2023-05-14T03:28:25;22.73;;;17.42;;
59786;SDS011;45672;51.612;5.536;2023-05-14T03:30:50;21.02;;;18.00;;
59786;SDS011;45672;51.612;5.536;2023-05-14T03:33:15;24.05;;;18.13;;
59786;SDS011;45672;51.612;5.536;2023-05-14T03:35:41;26.92;;;17.85;;
59786;SDS011;45672;51.612;5.536;2023-05-14T03:38:06;22.90;;;17.88;;
59786;SDS011;45672;51.612;5.536;2023-05-14T03:40:31;20.77;;;18.58;;
59786;SDS011;45672;51.612;5.536;2023-05-14T03:42:57;23.52;;;18.70;;
59786;SDS011;45672;51.612;5.536;2023-05-14T03:45:22;24.35;;;18.70;;
59786;SDS011;45672;51.612;5.536;2023-05-14T03:47:47;25.38;;;19.38;;
59786;SDS011;45672;51.612;5.536;2023-05-14T03:50:12;26.75;;;19.30;;
59786;SDS011;45672;51.612;5.536;2023-05-14T03:52:38;24.48;;;19.35;;
59786;SDS011;45672;51.612;5.536;2023-05-14T03:55:04;27.25;;;18.88;;
59786;SDS011;45672;51.612;5.536;2023-05-14T03:57:30;21.98;;;19.50;;
59786;SDS011;45672;51.612;5.536;2023-05-14T03:59:55;24.05;;;19.55;;
59786;SDS011;45672;51.612;5.536;2023-05-14T04:02:20;29.23;;;20.17;;
59786;SDS011;45672;51.612;5.536;2023-05-14T04:04:46;27.05;;;19.17;;
59786;SDS011;45672;51.612;5.536;2023-05-14T04:07:11;22.70;;;18.70;;
59786;SDS011;45672;51.612;5.536;2023-05-14T04:09:36;26.48;;;20.38;;
59786;SDS011;45672;51.612;5.536;2023-05-14T04:12:02;26.52;;;20.05;;
59786;SDS011;45672;51.612;5.536;2023-05-14T04:14:27;28.98;;;21.05;;
59786;SDS011;45672;51.612;5.536;2023-05-14T04:16:53;28.00;;;21.10;;
59786;SDS011;45672;51.612;5.536;2023-05-14T04:19:18;26.45;;;19.90;;
59786;SDS011;45672;51.612;5.536;2023-05-14T04:21:44;24.67;;;20.17;;
59786;SDS011;45672;51.612;5.536;2023-05-14T04:24:09;22.15;;;19.52;;
59786;SDS011;45672;51.612;5.536;2023-05-14T04:26:34;26.48;;;20.00;;
59786;SDS011;45672;51.612;5.536;2023-05-14T04:29:00;27.20;;;20.00;;
59786;SDS011;45672;51.612;5.536;2023-05-14T04:31:27;27.38;;;20.27;;
59786;SDS011;45672;51.612;5.536;2023-05-14T04:33:52;24.88;;;19.77;;
59786;SDS011;45672;51.612;5.536;2023-05-14T04:36:18;22.88;;;18.85;;
59786;SDS011;45672;51.612;5.536;2023-05-14T04:38:43;25.42;;;18.90;;
59786;SDS011;45672;51.612;5.536;2023-05-14T04:41:08;25.27;;;19.67;;
59786;SDS011;45672;51.612;5.536;2023-05-14T04:43:34;24.80;;;19.77;;
59786;SDS011;45672;51.612;5.536;2023-05-14T04:45:59;26.02;;;19.73;;
59786;SDS011;45672;51.612;5.536;2023-05-14T04:48:24;30.27;;;19.52;;
59786;SDS011;45672;51.612;5.536;2023-05-14T04:50:50;30.98;;;20.48;;
59786;SDS011;45672;51.612;5.536;2023-05-14T04:53:16;28.60;;;19.58;;
59786;SDS011;45672;51.612;5.536;2023-05-14T04:55:41;27.08;;;19.60;;
59786;SDS011;45672;51.612;5.536;2023-05-14T04:58:06;24.90;;;19.45;;
59786;SDS011;45672;51.612;5.536;2023-05-14T05:00:32;25.10;;;19.60;;
59786;SDS011;45672;51.612;5.536;2023-05-14T05:02:57;22.98;;;19.20;;
59786;SDS011;45672;51.612;5.536;2023-05-14T05:05:22;22.75;;;18.92;;
59786;SDS011;45672;51.612;5.536;2023-05-14T05:07:48;27.50;;;19.00;;
59786;SDS011;45672;51.612;5.536;2023-05-14T05:10:13;24.25;;;18.80;;
59786;SDS011;45672;51.612;5.536;2023-05-14T05:12:39;25.98;;;20.15;;
59786;SDS011;45672;51.612;5.536;2023-05-14T05:15:05;29.70;;;19.50;;
59786;SDS011;45672;51.612;5.536;2023-05-14T05:17:31;28.33;;;19.05;;
59786;SDS011;45672;51.612;5.536;2023-05-14T05:19:56;26.48;;;19.10;;
59786;SDS011;45672;51.612;5.536;2023-05-14T05:22:22;23.40;;;18.27;;
59786;SDS011;45672;51.612;5.536;2023-05-14T05:24:48;26.77;;;18.45;;
59786;SDS011;45672;51.612;5.536;2023-05-14T05:27:13;24.15;;;19.58;;
59786;SDS011;45672;51.612;5.536;2023-05-14T05:29:38;27.10;;;19.23;;
59786;SDS011;45672;51.612;5.536;2023-05-14T05:32:04;25.00;;;19.17;;
59786;SDS011;45672;51.612;5.536;2023-05-14T05:34:30;22.48;;;19.50;;
59786;SDS011;45672;51.612;5.536;2023-05-14T05:36:55;27.70;;;20.00;;
59786;SDS011;45672;51.612;5.536;2023-05-14T05:39:21;24.70;;;19.52;;
59786;SDS011;45672;51.612;5.536;2023-05-14T05:41:46;27.35;;;19.92;;
59786;SDS011;45672;51.612;5.536;2023-05-14T05:44:11;27.90;;;19.08;;
59786;SDS011;45672;51.612;5.536;2023-05-14T05:46:36;34.08;;;20.55;;
59786;SDS011;45672;51.612;5.536;2023-05-14T05:49:02;27.95;;;20.20;;
59786;SDS011;45672;51.612;5.536;2023-05-14T05:51:27;24.10;;;19.75;;
59786;SDS011;45672;51.612;5.536;2023-05-14T05:53:52;23.30;;;19.40;;
59786;SDS011;45672;51.612;5.536;2023-05-14T05:56:18;26.35;;;20.02;;
59786;SDS011;45672;51.612;5.536;2023-05-14T05:58:43;25.05;;;20.75;;
59786;SDS011;45672;51.612;5.536;2023-05-14T06:01:09;28.15;;;20.02;;
59786;SDS011;45672;51.612;5.536;2023-05-14T06:03:34;30.08;;;21.60;;
59786;SDS011;45672;51.612;5.536;2023-05-14T06:05:59;29.15;;;21.05;;
59786;SDS011;45672;51.612;5.536;2023-05-14T06:08:25;26.20;;;20.10;;
59786;SDS011;45672;51.612;5.536;2023-05-14T06:10:50;28.15;;;19.92;;
59786;SDS011;45672;51.612;5.536;2023-05-14T06:13:16;26.15;;;19.90;;
59786;SDS011;45672;51.612;5.536;2023-05-14T06:15:41;25.45;;;19.38;;
59786;SDS011;45672;51.612;5.536;2023-05-14T06:18:06;26.00;;;20.10;;
59786;SDS011;45672;51.612;5.536;2023-05-14T06:20:31;27.17;;;20.83;;
59786;SDS011;45672;51.612;5.536;2023-05-14T06:22:57;22.90;;;18.75;;
59786;SDS011;45672;51.612;5.536;2023-05-14T06:25:23;27.90;;;19.35;;
59786;SDS011;45672;51.612;5.536;2023-05-14T06:27:48;23.02;;;18.00;;
59786;SDS011;45672;51.612;5.536;2023-05-14T06:30:13;20.92;;;18.15;;
59786;SDS011;45672;51.612;5.536;2023-05-14T06:32:39;24.75;;;18.40;;
59786;SDS011;45672;51.612;5.536;2023-05-14T06:35:04;23.50;;;17.50;;
59786;SDS011;45672;51.612;5.536;2023-05-14T06:37:30;21.33;;;16.85;;
59786;SDS011;45672;51.612;5.536;2023-05-14T06:39:55;27.83;;;17.25;;
59786;SDS011;45672;51.612;5.536;2023-05-14T06:42:21;22.27;;;15.50;;
59786;SDS011;45672;51.612;5.536;2023-05-14T06:44:46;20.35;;;14.70;;
59786;SDS011;45672;51.612;5.536;2023-05-14T06:47:11;23.30;;;14.15;;
59786;SDS011;45672;51.612;5.536;2023-05-14T06:49:37;19.90;;;13.27;;
59786;SDS011;45672;51.612;5.536;2023-05-14T06:52:02;18.50;;;13.00;;
59786;SDS011;45672;51.612;5.536;2023-05-14T06:54:29;18.52;;;13.48;;
59786;SDS011;45672;51.612;5.536;2023-05-14T06:56:55;16.08;;;12.30;;
59786;SDS011;45672;51.612;5.536;2023-05-14T06:59:20;17.33;;;12.32;;
59786;SDS011;45672;51.612;5.536;2023-05-14T07:01:45;15.07;;;12.25;;
59786;SDS011;45672;51.612;5.536;2023-05-14T07:04:11;15.75;;;12.13;;
59786;SDS011;45672;51.612;5.536;2023-05-14T07:06:36;13.77;;;11.60;;
59786;SDS011;45672;51.612;5.536;2023-05-14T07:09:01;14.75;;;12.05;;
59786;SDS011;45672;51.612;5.536;2023-05-14T07:11:27;12.52;;;11.23;;
59786;SDS011;45672;51.612;5.536;2023-05-14T07:13:54;14.13;;;11.60;;
59786;SDS011;45672;51.612;5.536;2023-05-14T07:16:19;20.98;;;11.88;;
59786;SDS011;45672;51.612;5.536;2023-05-14T07:18:44;12.52;;;11.18;;
59786;SDS011;45672;51.612;5.536;2023-05-14T07:21:10;15.40;;;11.15;;
59786;SDS011;45672;51.612;5.536;2023-05-14T07:23:35;14.70;;;11.43;;
59786;SDS011;45672;51.612;5.536;2023-05-14T07:26:04;25.05;;;11.38;;
59786;SDS011;45672;51.612;5.536;2023-05-14T07:28:30;15.55;;;11.55;;
59786;SDS011;45672;51.612;5.536;2023-05-14T07:30:56;14.40;;;10.75;;
59786;SDS011;45672;51.612;5.536;2023-05-14T07:33:21;14.95;;;10.98;;
59786;SDS011;45672;51.612;5.536;2023-05-14T07:35:47;11.90;;;10.70;;
59786;SDS011;45672;51.612;5.536;2023-05-14T07:38:12;15.05;;;10.57;;
59786;SDS011;45672;51.612;5.536;2023-05-14T07:40:38;12.45;;;10.02;;
59786;SDS011;45672;51.612;5.536;2023-05-14T07:43:03;11.98;;;10.32;;
59786;SDS011;45672;51.612;5.536;2023-05-14T07:45:29;20.48;;;10.23;;
59786;SDS011;45672;51.612;5.536;2023-05-14T07:47:54;14.23;;;9.93;;
59786;SDS011;45672;51.612;5.536;2023-05-14T07:50:19;10.85;;;9.80;;
59786;SDS011;45672;51.612;5.536;2023-05-14T07:52:45;16.30;;;8.95;;
59786;SDS011;45672;51.612;5.536;2023-05-14T07:55:11;15.75;;;9.60;;
59786;SDS011;45672;51.612;5.536;2023-05-14T07:57:37;9.73;;;8.70;;
59786;SDS011;45672;51.612;5.536;2023-05-14T08:00:03;13.70;;;9.18;;
59786;SDS011;45672;51.612;5.536;2023-05-14T08:02:31;13.00;;;8.80;;
59786;SDS011;45672;51.612;5.536;2023-05-14T08:04:57;12.98;;;8.95;;
59786;SDS011;45672;51.612;5.536;2023-05-14T08:07:22;11.25;;;8.70;;
59786;SDS011;45672;51.612;5.536;2023-05-14T08:09:47;9.93;;;8.55;;
59786;SDS011;45672;51.612;5.536;2023-05-14T08:12:13;11.13;;;8.45;;
59786;SDS011;45672;51.612;5.536;2023-05-14T08:14:38;9.77;;;7.88;;
59786;SDS011;45672;51.612;5.536;2023-05-14T08:17:03;18.88;;;8.70;;
59786;SDS011;45672;51.612;5.536;2023-05-14T08:19:28;15.80;;;8.27;;
59786;SDS011;45672;51.612;5.536;2023-05-14T08:21:54;8.70;;;7.90;;
59786;SDS011;45672;51.612;5.536;2023-05-14T08:24:19;16.42;;;7.85;;
59786;SDS011;45672;51.612;5.536;2023-05-14T08:26:45;13.13;;;8.27;;
59786;SDS011;45672;51.612;5.536;2023-05-14T08:29:10;9.10;;;8.23;;
59786;SDS011;45672;51.612;5.536;2023-05-14T08:31:36;10.52;;;7.75;;
59786;SDS011;45672;51.612;5.536;2023-05-14T08:34:02;12.32;;;8.15;;
59786;SDS011;45672;51.612;5.536;2023-05-14T08:36:27;7.78;;;6.95;;
59786;SDS011;45672;51.612;5.536;2023-05-14T08:38:52;8.80;;;7.60;;
59786;SDS011;45672;51.612;5.536;2023-05-14T08:41:18;9.82;;;7.03;;
59786;SDS011;45672;51.612;5.536;2023-05-14T08:43:46;8.68;;;6.80;;
59786;SDS011;45672;51.612;5.536;2023-05-14T08:46:22;8.15;;;6.97;;
59786;SDS011;45672;51.612;5.536;2023-05-14T08:49:00;9.25;;;6.80;;
59786;SDS011;45672;51.612;5.536;2023-05-14T08:51:32;9.25;;;6.40;;
59786;SDS011;45672;51.612;5.536;2023-05-14T08:53:58;10.75;;;6.97;;
59786;SDS011;45672;51.612;5.536;2023-05-14T08:56:26;9.80;;;6.00;;
59786;SDS011;45672;51.612;5.536;2023-05-14T08:58:52;9.75;;;7.10;;
59786;SDS011;45672;51.612;5.536;2023-05-14T09:01:17;8.48;;;6.32;;
59786;SDS011;45672;51.612;5.536;2023-05-14T09:03:43;8.90;;;6.22;;
59786;SDS011;45672;51.612;5.536;2023-05-14T09:06:10;11.25;;;6.25;;
59786;SDS011;45672;51.612;5.536;2023-05-14T09:08:36;7.55;;;5.60;;
59786;SDS011;45672;51.612;5.536;2023-05-14T09:11:02;9.27;;;6.40;;
59786;SDS011;45672;51.612;5.536;2023-05-14T09:13:28;6.90;;;5.70;;
59786;SDS011;45672;51.612;5.536;2023-05-14T09:15:53;8.40;;;6.40;;
59786;SDS011;45672;51.612;5.536;2023-05-14T09:18:19;8.63;;;5.72;;
59786;SDS011;45672;51.612;5.536;2023-05-14T09:20:45;10.25;;;5.32;;
59786;SDS011;45672;51.612;5.536;2023-05-14T09:23:11;7.07;;;5.68;;
59786;SDS011;45672;51.612;5.536;2023-05-14T09:25:36;7.43;;;5.40;;
59786;SDS011;45672;51.612;5.536;2023-05-14T09:28:04;10.10;;;5.60;;
59786;SDS011;45672;51.612;5.536;2023-05-14T09:30:31;9.32;;;5.90;;
59786;SDS011;45672;51.612;5.536;2023-05-14T09:32:58;10.30;;;5.70;;
59786;SDS011;45672;51.612;5.536;2023-05-14T09:35:24;14.05;;;5.60;;
59786;SDS011;45672;51.612;5.536;2023-05-14T09:37:50;7.82;;;5.72;;
59786;SDS011;45672;51.612;5.536;2023-05-14T09:40:18;7.50;;;5.05;;
59786;SDS011;45672;51.612;5.536;2023-05-14T09:42:44;7.15;;;5.40;;
59786;SDS011;45672;51.612;5.536;2023-05-14T09:45:10;10.73;;;5.30;;
59786;SDS011;45672;51.612;5.536;2023-05-14T09:47:36;8.95;;;4.60;;
59786;SDS011;45672;51.612;5.536;2023-05-14T09:50:02;12.60;;;4.82;;
59786;SDS011;45672;51.612;5.536;2023-05-14T09:52:28;5.30;;;4.80;;
59786;SDS011;45672;51.612;5.536;2023-05-14T09:54:54;8.98;;;5.20;;
59786;SDS011;45672;51.612;5.536;2023-05-14T09:57:19;8.10;;;4.22;;
59786;SDS011;45672;51.612;5.536;2023-05-14T09:59:45;8.60;;;5.07;;
59786;SDS011;45672;51.612;5.536;2023-05-14T10:02:21;8.20;;;4.75;;
59786;SDS011;45672;51.612;5.536;2023-05-14T10:04:49;8.98;;;4.22;;
59786;SDS011;45672;51.612;5.536;2023-05-14T10:07:16;8.25;;;4.57;;
59786;SDS011;45672;51.612;5.536;2023-05-14T10:09:45;7.30;;;4.43;;
59786;SDS011;45672;51.612;5.536;2023-05-14T10:12:11;8.18;;;4.50;;
59786;SDS011;45672;51.612;5.536;2023-05-14T10:14:40;6.40;;;4.50;;
59786;SDS011;45672;51.612;5.536;2023-05-14T10:17:11;6.82;;;4.70;;
59786;SDS011;45672;51.612;5.536;2023-05-14T10:19:42;8.88;;;4.32;;
59786;SDS011;45672;51.612;5.536;2023-05-14T10:22:14;8.25;;;4.57;;
59786;SDS011;45672;51.612;5.536;2023-05-14T10:24:43;8.23;;;4.40;;
59786;SDS011;45672;51.612;5.536;2023-05-14T10:27:10;5.50;;;4.18;;
59786;SDS011;45672;51.612;5.536;2023-05-14T10:29:36;7.60;;;3.92;;
59786;SDS011;45672;51.612;5.536;2023-05-14T10:32:03;8.65;;;4.00;;
59786;SDS011;45672;51.612;5.536;2023-05-14T10:37:11;8.32;;;4.57;;
59786;SDS011;45672;51.612;5.536;2023-05-14T10:40:00;8.48;;;4.50;;
59786;SDS011;45672;51.612;5.536;2023-05-14T10:42:26;10.77;;;5.10;;
59786;SDS011;45672;51.612;5.536;2023-05-14T10:44:58;8.88;;;5.63;;
59786;SDS011;45672;51.612;5.536;2023-05-14T10:47:26;7.68;;;5.80;;
59786;SDS011;45672;51.612;5.536;2023-05-14T10:49:55;5.47;;;4.72;;
59786;SDS011;45672;51.612;5.536;2023-05-14T10:52:23;7.47;;;5.83;;
59786;SDS011;45672;51.612;5.536;2023-05-14T10:54:50;8.88;;;5.93;;
59786;SDS011;45672;51.612;5.536;2023-05-14T10:57:20;6.90;;;5.45;;
59786;SDS011;45672;51.612;5.536;2023-05-14T10:59:47;9.20;;;6.20;;
59786;SDS011;45672;51.612;5.536;2023-05-14T11:02:21;9.27;;;5.30;;
59786;SDS011;45672;51.612;5.536;2023-05-14T11:04:51;8.75;;;5.50;;
59786;SDS011;45672;51.612;5.536;2023-05-14T11:07:19;10.20;;;5.57;;
59786;SDS011;45672;51.612;5.536;2023-05-14T11:09:49;7.38;;;5.20;;
59786;SDS011;45672;51.612;5.536;2023-05-14T11:12:15;7.75;;;5.53;;
59786;SDS011;45672;51.612;5.536;2023-05-14T11:14:41;8.18;;;5.60;;
59786;SDS011;45672;51.612;5.536;2023-05-14T11:17:07;9.75;;;5.70;;
59786;SDS011;45672;51.612;5.536;2023-05-14T11:19:33;7.95;;;5.30;;
59786;SDS011;45672;51.612;5.536;2023-05-14T11:21:58;8.07;;;5.60;;
59786;SDS011;45672;51.612;5.536;2023-05-14T11:24:25;8.55;;;5.50;;
59786;SDS011;45672;51.612;5.536;2023-05-14T11:26:51;5.85;;;5.32;;
59786;SDS011;45672;51.612;5.536;2023-05-14T11:29:17;6.97;;;5.63;;
59786;SDS011;45672;51.612;5.536;2023-05-14T11:31:42;9.38;;;5.97;;
59786;SDS011;45672;51.612;5.536;2023-05-14T11:34:07;6.05;;;5.40;;
59786;SDS011;45672;51.612;5.536;2023-05-14T11:36:35;6.05;;;5.40;;
59786;SDS011;45672;51.612;5.536;2023-05-14T11:39:00;8.55;;;5.53;;
59786;SDS011;45672;51.612;5.536;2023-05-14T11:41:26;10.70;;;6.18;;
59786;SDS011;45672;51.612;5.536;2023-05-14T11:43:52;5.55;;;4.97;;
59786;SDS011;45672;51.612;5.536;2023-05-14T11:46:17;6.07;;;5.00;;
59786;SDS011;45672;51.612;5.536;2023-05-14T11:48:43;8.27;;;5.50;;
59786;SDS011;45672;51.612;5.536;2023-05-14T11:51:08;7.55;;;5.03;;
59786;SDS011;45672;51.612;5.536;2023-05-14T11:53:33;9.18;;;4.88;;
59786;SDS011;45672;51.612;5.536;2023-05-14T11:55:59;10.95;;;5.30;;
59786;SDS011;45672;51.612;5.536;2023-05-14T11:58:24;5.50;;;5.00;;
59786;SDS011;45672;51.612;5.536;2023-05-14T12:00:50;9.73;;;4.72;;
59786;SDS011;45672;51.612;5.536;2023-05-14T12:03:17;8.10;;;4.35;;
59786;SDS011;45672;51.612;5.536;2023-05-14T12:08:31;7.53;;;4.72;;
59786;SDS011;45672;51.612;5.536;2023-05-14T12:10:57;4.82;;;4.32;;
59786;SDS011;45672;51.612;5.536;2023-05-14T12:13:25;8.88;;;4.30;;
59786;SDS011;45672;51.612;5.536;2023-05-14T12:15:55;7.10;;;4.28;;
59786;SDS011;45672;51.612;5.536;2023-05-14T12:18:21;6.60;;;4.47;;
59786;SDS011;45672;51.612;5.536;2023-05-14T12:20:48;8.43;;;4.30;;
59786;SDS011;45672;51.612;5.536;2023-05-14T12:23:15;6.78;;;4.40;;
59786;SDS011;45672;51.612;5.536;2023-05-14T12:25:50;6.65;;;4.25;;
59786;SDS011;45672;51.612;5.536;2023-05-14T12:28:16;6.40;;;4.30;;
59786;SDS011;45672;51.612;5.536;2023-05-14T12:30:43;4.63;;;4.10;;
59786;SDS011;45672;51.612;5.536;2023-05-14T12:33:09;5.47;;;4.07;;
59786;SDS011;45672;51.612;5.536;2023-05-14T12:35:34;7.35;;;4.10;;
59786;SDS011;45672;51.612;5.536;2023-05-14T12:38:02;5.70;;;3.78;;
59786;SDS011;45672;51.612;5.536;2023-05-14T12:40:28;4.50;;;3.55;;
59786;SDS011;45672;51.612;5.536;2023-05-14T12:42:53;4.20;;;3.80;;
59786;SDS011;45672;51.612;5.536;2023-05-14T12:45:19;5.68;;;3.70;;
59786;SDS011;45672;51.612;5.536;2023-05-14T12:47:44;6.00;;;3.63;;
59786;SDS011;45672;51.612;5.536;2023-05-14T12:50:09;7.43;;;3.42;;
59786;SDS011;45672;51.612;5.536;2023-05-14T12:52:35;5.68;;;3.03;;
59786;SDS011;45672;51.612;5.536;2023-05-14T12:55:00;5.47;;;3.40;;
59786;SDS011;45672;51.612;5.536;2023-05-14T12:57:26;3.67;;;3.20;;
59786;SDS011;45672;51.612;5.536;2023-05-14T12:59:52;3.25;;;2.90;;
59786;SDS011;45672;51.612;5.536;2023-05-14T13:02:17;4.38;;;3.25;;
59786;SDS011;45672;51.612;5.536;2023-05-14T13:04:43;7.63;;;3.45;;
59786;SDS011;45672;51.612;5.536;2023-05-14T13:07:09;4.10;;;3.70;;
59786;SDS011;45672;51.612;5.536;2023-05-14T13:09:34;9.35;;;3.47;;
59786;SDS011;45672;51.612;5.536;2023-05-14T13:12:00;4.75;;;3.25;;
59786;SDS011;45672;51.612;5.536;2023-05-14T13:14:25;3.45;;;2.85;;
59786;SDS011;45672;51.612;5.536;2023-05-14T13:16:50;4.75;;;2.60;;
59786;SDS011;45672;51.612;5.536;2023-05-14T13:19:16;5.78;;;2.90;;
59786;SDS011;45672;51.612;5.536;2023-05-14T13:21:41;5.45;;;2.80;;
59786;SDS011;45672;51.612;5.536;2023-05-14T13:24:06;6.13;;;2.80;;
59786;SDS011;45672;51.612;5.536;2023-05-14T13:26:34;3.47;;;2.72;;
59786;SDS011;45672;51.612;5.536;2023-05-14T13:29:00;3.28;;;2.67;;
59786;SDS011;45672;51.612;5.536;2023-05-14T13:31:25;5.60;;;2.70;;
59786;SDS011;45672;51.612;5.536;2023-05-14T13:33:51;3.95;;;2.97;;
59786;SDS011;45672;51.612;5.536;2023-05-14T13:36:16;7.63;;;3.15;;
59786;SDS011;45672;51.612;5.536;2023-05-14T13:38:41;4.38;;;2.95;;
59786;SDS011;45672;51.612;5.536;2023-05-14T13:41:07;4.30;;;2.80;;
59786;SDS011;45672;51.612;5.536;2023-05-14T13:43:33;5.60;;;2.97;;
59786;SDS011;45672;51.612;5.536;2023-05-14T13:45:59;18.48;;;3.90;;
59786;SDS011;45672;51.612;5.536;2023-05-14T13:48:25;5.57;;;3.35;;
59786;SDS011;45672;51.612;5.536;2023-05-14T13:50:51;5.82;;;3.20;;
59786;SDS011;45672;51.612;5.536;2023-05-14T13:53:17;11.98;;;3.60;;
59786;SDS011;45672;51.612;5.536;2023-05-14T13:55:47;8.55;;;3.83;;
59786;SDS011;45672;51.612;5.536;2023-05-14T13:58:12;3.28;;;3.08;;
59786;SDS011;45672;51.612;5.536;2023-05-14T14:00:38;4.75;;;3.05;;
59786;SDS011;45672;51.612;5.536;2023-05-14T14:03:03;7.75;;;2.90;;
59786;SDS011;45672;51.612;5.536;2023-05-14T14:05:30;4.07;;;3.00;;
59786;SDS011;45672;51.612;5.536;2023-05-14T14:07:55;5.13;;;3.13;;
59786;SDS011;45672;51.612;5.536;2023-05-14T14:10:21;8.15;;;3.33;;
59786;SDS011;45672;51.612;5.536;2023-05-14T14:12:47;4.18;;;2.88;;
59786;SDS011;45672;51.612;5.536;2023-05-14T14:15:13;6.82;;;3.15;;
59786;SDS011;45672;51.612;5.536;2023-05-14T14:17:39;6.47;;;3.10;;
59786;SDS011;45672;51.612;5.536;2023-05-14T14:20:08;3.90;;;3.08;;
59786;SDS011;45672;51.612;5.536;2023-05-14T14:22:34;6.13;;;2.95;;
59786;SDS011;45672;51.612;5.536;2023-05-14T14:24:59;6.20;;;3.53;;
59786;SDS011;45672;51.612;5.536;2023-05-14T14:27:25;4.57;;;3.22;;
59786;SDS011;45672;51.612;5.536;2023-05-14T14:29:51;6.82;;;2.80;;
59786;SDS011;45672;51.612;5.536;2023-05-14T14:32:16;8.45;;;2.70;;
59786;SDS011;45672;51.612;5.536;2023-05-14T14:34:45;3.20;;;2.70;;
59786;SDS011;45672;51.612;5.536;2023-05-14T14:37:10;21.98;;;4.40;;